createdAt,value
2019-05-09T00:00:36.203Z,71.51
2019-05-09T00:03:05.829Z,71.64
2019-05-09T00:05:35.259Z,71.99
2019-05-09T00:08:04.683Z,72.52
2019-05-09T00:10:39.426Z,72.02
2019-05-09T00:13:05.195Z,71.39
2019-05-09T00:15:34.641Z,71.45
2019-05-09T00:18:04.158Z,71.26
2019-05-09T00:20:35.157Z,71.16
2019-05-09T00:23:04.599Z,71.37
2019-05-09T00:25:34.101Z,71.08
2019-05-09T00:28:04.385Z,71.20
2019-05-09T00:30:54.010Z,71.26
2019-05-09T00:33:24.546Z,71.14
2019-05-09T00:35:53.936Z,71.30
2019-05-09T00:38:24.962Z,71.08
2019-05-09T00:40:58.615Z,71.14
2019-05-09T00:43:25.475Z,71.45
2019-05-09T00:46:04.161Z,71.78
2019-05-09T00:51:14.033Z,72.10
2019-05-09T00:53:44.378Z,73.09
2019-05-09T00:56:13.615Z,73.51
2019-05-09T00:58:44.090Z,73.58
2019-05-09T01:01:14.661Z,73.38
2019-05-09T01:03:43.995Z,73.71
2019-05-09T01:06:13.591Z,73.44
2019-05-09T01:08:44.180Z,73.50
2019-05-09T01:11:15.585Z,73.64
2019-05-09T01:13:44.771Z,73.50
2019-05-09T01:16:14.134Z,73.30
2019-05-09T01:18:43.808Z,73.32
2019-05-09T01:21:13.523Z,73.53
2019-05-09T01:23:43.748Z,74.22
2019-05-09T01:26:13.423Z,74.50
2019-05-09T01:28:44.225Z,74.42
2019-05-09T01:31:13.342Z,74.75
2019-05-09T01:33:49.984Z,74.87
2019-05-09T01:36:18.832Z,74.30
2019-05-09T01:38:47.603Z,74.64
2019-05-09T01:41:27.974Z,74.60
2019-05-09T01:43:48.003Z,74.13
2019-05-09T01:46:18.032Z,74.44
2019-05-09T01:48:46.861Z,73.90
2019-05-09T01:51:16.303Z,73.77
2019-05-09T01:53:47.321Z,74.20
2019-05-09T01:56:16.697Z,73.77
2019-05-09T01:58:46.089Z,73.98
2019-05-09T02:01:14.907Z,73.87
2019-05-09T02:03:44.459Z,74.02
2019-05-09T02:06:13.762Z,74.27
2019-05-09T02:08:43.824Z,74.71
2019-05-09T02:11:13.555Z,74.61
2019-05-09T02:13:44.249Z,74.49
2019-05-09T02:16:15.056Z,73.94
2019-05-09T02:21:38.980Z,73.90
2019-05-09T02:24:07.825Z,75.35
2019-05-09T02:26:37.189Z,74.50
2019-05-09T02:29:06.624Z,74.52
2019-05-09T02:31:35.607Z,74.95
2019-05-09T02:34:05.234Z,75.20
2019-05-09T02:36:34.172Z,74.99
2019-05-09T02:39:03.019Z,75.38
2019-05-09T02:41:31.778Z,75.78
2019-05-09T02:44:01.210Z,75.56
2019-05-09T02:46:49.205Z,75.18
2019-05-09T02:49:19.058Z,75.28
2019-05-09T02:51:48.943Z,75.22
2019-05-09T02:54:19.067Z,75.24
2019-05-09T02:56:49.290Z,75.22
2019-05-09T02:59:19.961Z,74.51
2019-05-09T03:01:58.535Z,74.41
2019-05-09T03:04:28.595Z,74.37
2019-05-09T03:06:59.611Z,74.33
2019-05-09T03:09:28.945Z,74.42
2019-05-09T03:11:59.260Z,74.01
2019-05-09T03:14:29.601Z,74.14
2019-05-09T03:16:58.945Z,73.49
2019-05-09T03:19:29.824Z,72.82
2019-05-09T03:22:10.058Z,72.54
2019-05-09T03:24:39.666Z,72.28
2019-05-09T03:27:10.682Z,72.63
2019-05-09T03:32:33.264Z,71.97
2019-05-09T03:35:02.713Z,71.23
2019-05-09T03:37:32.078Z,70.52
2019-05-09T03:40:01.459Z,68.09
2019-05-09T03:42:43.060Z,68.69
2019-05-09T03:45:02.122Z,67.76
2019-05-09T03:50:24.489Z,64.23
2019-05-09T03:52:53.854Z,62.35
2019-05-09T03:55:24.869Z,60.97
2019-05-09T03:58:01.880Z,59.49
2019-05-09T04:00:31.347Z,58.58
2019-05-09T04:03:00.804Z,57.64
2019-05-09T04:05:30.188Z,56.94
2019-05-09T04:08:22.690Z,56.67
2019-05-09T04:10:53.272Z,56.12
2019-05-09T04:13:24.774Z,56.58
2019-05-09T04:15:54.225Z,58.26
2019-05-09T04:18:23.652Z,57.35
2019-05-09T04:20:53.071Z,58.98
2019-05-09T04:23:22.488Z,59.49
2019-05-09T04:26:08.865Z,59.89
2019-05-09T04:28:39.946Z,61.69
2019-05-09T04:31:09.385Z,62.65
2019-05-09T04:33:38.854Z,62.88
2019-05-09T04:36:08.461Z,63.86
2019-05-09T04:38:39.900Z,62.86
2019-05-09T04:41:09.087Z,62.72
2019-05-09T04:43:40.090Z,62.72
2019-05-09T04:46:12.904Z,62.84
2019-05-09T04:48:40.645Z,62.97
2019-05-09T04:51:10.401Z,62.08
2019-05-09T04:53:40.116Z,61.21
2019-05-09T04:56:17.630Z,60.10
2019-05-09T04:58:48.159Z,58.94
2019-05-09T05:01:19.810Z,57.28
2019-05-09T05:03:50.925Z,56.74
2019-05-09T05:06:20.813Z,56.75
2019-05-09T05:08:50.312Z,56.87
2019-05-09T05:11:19.767Z,55.86
2019-05-09T05:13:49.207Z,56.66
2019-05-09T05:16:18.599Z,56.66
2019-05-09T05:18:47.979Z,57.55
2019-05-09T05:21:19.945Z,56.94
2019-05-09T05:23:50.058Z,56.92
2019-05-09T05:26:21.213Z,56.61
2019-05-09T05:28:50.644Z,57.77
2019-05-09T05:31:20.018Z,56.89
2019-05-09T05:33:54.165Z,56.68
2019-05-09T05:36:24.091Z,55.92
2019-05-09T05:38:53.462Z,56.16
2019-05-09T05:41:22.919Z,55.78
2019-05-09T05:43:52.305Z,54.44
2019-05-09T05:46:23.332Z,53.45
2019-05-09T05:48:54.386Z,52.65
2019-05-09T05:51:23.776Z,51.50
2019-05-09T05:53:53.180Z,51.69
2019-05-09T05:56:22.559Z,51.69
2019-05-09T05:58:52.002Z,50.66
2019-05-09T06:01:21.445Z,50.37
2019-05-09T06:03:50.902Z,50.06
2019-05-09T06:06:20.307Z,49.71
2019-05-09T06:08:49.669Z,51.32
2019-05-09T06:11:19.086Z,51.33
2019-05-09T06:13:57.296Z,52.15
2019-05-09T06:16:22.270Z,54.19
2019-05-09T06:18:52.585Z,53.85
2019-05-09T06:21:22.449Z,52.73
2019-05-09T06:23:53.330Z,55.01
2019-05-09T06:26:22.716Z,53.62
2019-05-09T06:28:52.093Z,53.69
2019-05-09T06:31:21.521Z,54.40
2019-05-09T06:33:53.503Z,53.36
2019-05-09T06:36:22.698Z,51.73
2019-05-09T06:38:52.387Z,53.41
2019-05-09T06:41:21.929Z,52.40
2019-05-09T06:44:13.138Z,53.60
2019-05-09T06:46:31.768Z,52.82
2019-05-09T06:49:23.308Z,53.35
2019-05-09T06:51:33.926Z,50.37
2019-05-09T06:54:03.347Z,50.33
2019-05-09T06:56:32.830Z,49.02
2019-05-09T06:59:02.255Z,51.14
2019-05-09T07:01:37.590Z,49.13
2019-05-09T07:04:14.790Z,50.07
2019-05-09T07:06:51.840Z,48.56
2019-05-09T07:09:27.839Z,48.25
2019-05-09T07:11:58.599Z,48.38
2019-05-09T07:14:32.995Z,49.37
2019-05-09T07:17:01.001Z,46.33
2019-05-09T07:19:30.482Z,45.85
2019-05-09T07:22:18.382Z,46.30
2019-05-09T07:25:09.870Z,45.74
2019-05-09T07:27:40.003Z,43.60
2019-05-09T07:30:29.184Z,44.29
2019-05-09T07:33:03.331Z,43.35
2019-05-09T07:35:32.934Z,44.06
2019-05-09T07:38:02.400Z,44.09
2019-05-09T07:40:31.911Z,44.12
2019-05-09T07:43:01.338Z,44.50
2019-05-09T07:45:30.934Z,43.52
2019-05-09T07:48:00.411Z,44.69
2019-05-09T07:50:29.994Z,43.15
2019-05-09T07:52:59.458Z,44.18
2019-05-09T07:55:28.946Z,44.37
2019-05-09T07:57:59.264Z,44.32
2019-05-09T08:00:38.192Z,44.76
2019-05-09T08:03:09.225Z,42.95
2019-05-09T08:05:38.656Z,44.12
2019-05-09T08:08:11.099Z,42.28
2019-05-09T08:10:40.583Z,41.53
2019-05-09T08:13:11.991Z,43.19
2019-05-09T08:15:41.791Z,40.92
2019-05-09T08:18:12.070Z,42.10
2019-05-09T08:20:41.554Z,43.48
2019-05-09T08:23:11.012Z,41.37
2019-05-09T08:25:40.481Z,42.16
2019-05-09T08:28:09.925Z,42.30
2019-05-09T08:30:40.229Z,42.47
2019-05-09T08:33:10.318Z,41.60
2019-05-09T08:35:40.999Z,41.29
2019-05-09T08:38:10.471Z,40.54
2019-05-09T08:40:42.727Z,39.67
2019-05-09T08:43:12.328Z,38.93
2019-05-09T08:45:41.949Z,40.83
2019-05-09T08:48:11.507Z,37.77
2019-05-09T08:50:47.914Z,37.77
2019-05-09T08:53:18.874Z,38.59
2019-05-09T08:55:48.009Z,39.36
2019-05-09T08:58:19.545Z,38.31
2019-05-09T09:00:49.214Z,38.25
2019-05-09T09:03:18.816Z,37.25
2019-05-09T09:05:50.939Z,36.64
2019-05-09T09:08:22.559Z,36.92
2019-05-09T09:10:52.042Z,34.36
2019-05-09T09:13:24.411Z,35.12
2019-05-09T09:16:12.120Z,35.12
2019-05-09T09:18:25.186Z,35.68
2019-05-09T09:20:54.807Z,35.84
2019-05-09T09:23:39.040Z,33.60
2019-05-09T09:25:58.818Z,33.60
2019-05-09T09:28:31.576Z,33.49
2019-05-09T09:31:00.857Z,31.86
2019-05-09T09:33:30.584Z,31.86
2019-05-09T09:36:00.142Z,31.91
2019-05-09T09:38:30.979Z,31.91
2019-05-09T09:41:00.740Z,32.73
2019-05-09T09:43:30.082Z,32.50
2019-05-09T09:46:10.936Z,31.95
2019-05-09T09:48:35.280Z,31.95
2019-05-09T09:51:04.770Z,34.30
2019-05-09T09:53:34.767Z,33.84
2019-05-09T09:56:04.315Z,34.32
2019-05-09T09:58:33.748Z,35.05
2019-05-09T10:01:20.134Z,35.05
2019-05-09T10:03:51.132Z,32.75
2019-05-09T10:06:20.955Z,32.75
2019-05-09T10:08:50.320Z,31.72
2019-05-09T10:11:20.081Z,31.72
2019-05-09T10:13:51.911Z,34.01
2019-05-09T10:16:29.055Z,32.35
2019-05-09T10:19:00.680Z,32.20
2019-05-09T10:21:40.615Z,31.63
2019-05-09T10:24:10.339Z,31.52
2019-05-09T10:26:41.110Z,31.52
2019-05-09T10:29:10.652Z,32.15
2019-05-09T10:31:40.174Z,31.92
2019-05-09T10:34:11.764Z,31.50
2019-05-09T10:36:42.592Z,31.50
2019-05-09T10:39:13.717Z,32.15
2019-05-09T10:41:43.155Z,29.92
2019-05-09T10:44:14.163Z,30.92
2019-05-09T10:46:53.652Z,30.92
2019-05-09T10:49:15.820Z,32.08
2019-05-09T10:51:44.964Z,31.81
2019-05-09T10:54:14.264Z,31.81
2019-05-09T10:56:43.452Z,30.32
2019-05-09T10:59:12.649Z,30.32
2019-05-09T11:01:44.579Z,30.34
2019-05-09T11:04:13.846Z,29.55
2019-05-09T11:06:43.570Z,29.55
2019-05-09T11:09:12.963Z,29.60
2019-05-09T11:11:42.312Z,30.73
2019-05-09T11:14:32.128Z,29.90
2019-05-09T11:17:07.825Z,30.53
2019-05-09T11:19:28.529Z,30.98
2019-05-09T11:22:03.345Z,28.82
2019-05-09T11:24:42.915Z,28.61
2019-05-09T11:27:08.298Z,28.61
2019-05-09T11:29:34.520Z,27.88
2019-05-09T11:32:03.819Z,28.76
2019-05-09T11:34:33.016Z,27.90
2019-05-09T11:37:02.153Z,27.05
2019-05-09T11:39:36.631Z,28.56
2019-05-09T11:42:02.539Z,27.69
2019-05-09T11:44:33.275Z,28.83
2019-05-09T11:47:02.496Z,27.38
2019-05-09T11:49:38.970Z,26.65
2019-05-09T11:52:08.373Z,28.48
2019-05-09T11:54:43.187Z,27.14
2019-05-09T11:57:20.030Z,28.46
2019-05-09T11:59:58.063Z,25.10
2019-05-09T12:02:28.939Z,24.82
2019-05-09T12:05:02.192Z,26.23
2019-05-09T12:07:33.445Z,26.67
2019-05-09T12:10:07.874Z,26.48
2019-05-09T12:12:38.941Z,26.57
2019-05-09T12:15:10.894Z,28.15
2019-05-09T12:17:56.064Z,27.45
2019-05-09T12:20:13.709Z,26.64
2019-05-09T12:22:48.330Z,27.13
2019-05-09T12:25:19.595Z,27.49
2019-05-09T12:27:51.668Z,27.88
2019-05-09T12:30:21.445Z,27.43
2019-05-09T12:32:50.667Z,25.30
2019-05-09T12:35:20.103Z,25.63
2019-05-09T12:37:49.337Z,26.90
2019-05-09T12:40:20.122Z,26.36
2019-05-09T12:42:51.934Z,28.08
2019-05-09T12:45:21.133Z,28.57
2019-05-09T12:48:06.467Z,28.40
2019-05-09T12:50:24.329Z,28.90
2019-05-09T12:52:58.114Z,29.17
2019-05-09T12:55:27.645Z,26.74
2019-05-09T12:57:59.432Z,29.06
2019-05-09T13:00:28.472Z,29.06
2019-05-09T13:02:59.421Z,28.13
2019-05-09T13:05:30.336Z,30.75
2019-05-09T13:08:01.789Z,27.37
2019-05-09T13:10:30.478Z,27.74
2019-05-09T13:12:59.929Z,27.94
2019-05-09T13:15:31.582Z,30.11
2019-05-09T13:18:02.998Z,30.19
2019-05-09T13:20:35.318Z,29.83
2019-05-09T13:23:08.917Z,28.39
2019-05-09T13:25:38.526Z,31.06
2019-05-09T13:28:08.386Z,31.06
2019-05-09T13:30:38.160Z,30.74
2019-05-09T13:33:10.730Z,30.44
2019-05-09T13:35:40.726Z,31.31
2019-05-09T13:38:10.382Z,32.06
2019-05-09T13:40:39.868Z,31.78
2019-05-09T13:43:09.444Z,32.29
2019-05-09T13:45:38.914Z,32.64
2019-05-09T13:48:26.413Z,33.59
2019-05-09T13:50:39.679Z,34.42
2019-05-09T13:53:09.108Z,34.42
2019-05-09T13:55:38.526Z,33.57
2019-05-09T13:58:08.120Z,35.04
2019-05-09T14:00:54.856Z,35.04
2019-05-09T14:03:11.791Z,36.12
2019-05-09T14:05:41.382Z,36.42
2019-05-09T14:08:11.713Z,37.21
2019-05-09T14:10:41.400Z,37.21
2019-05-09T14:13:14.151Z,38.22
2019-05-09T14:15:44.279Z,37.85
2019-05-09T14:18:13.897Z,37.85
2019-05-09T14:20:43.323Z,38.72
2019-05-09T14:23:12.805Z,38.50
2019-05-09T14:25:42.195Z,39.33
2019-05-09T14:28:11.633Z,39.30
2019-05-09T14:30:50.111Z,39.30
2019-05-09T14:33:19.612Z,40.11
2019-05-09T14:35:49.394Z,41.52
2019-05-09T14:38:18.930Z,40.50
2019-05-09T14:40:48.411Z,41.60
2019-05-09T14:43:18.571Z,42.52
2019-05-09T14:45:48.416Z,42.53
2019-05-09T14:48:18.940Z,42.35
2019-05-09T14:50:49.546Z,42.31
2019-05-09T14:53:19.409Z,41.19
2019-05-09T14:55:48.886Z,41.19
2019-05-09T14:58:18.390Z,40.73
2019-05-09T15:00:49.473Z,40.28
2019-05-09T15:03:19.858Z,42.83
2019-05-09T15:05:49.583Z,42.72
2019-05-09T15:08:19.221Z,41.77
2019-05-09T15:10:51.569Z,42.13
2019-05-09T15:13:21.175Z,42.94
2019-05-09T15:15:50.656Z,45.01
2019-05-09T15:18:20.058Z,45.75
2019-05-09T15:20:49.558Z,42.83
2019-05-09T15:23:19.638Z,43.15
2019-05-09T15:25:49.422Z,46.57
2019-05-09T15:28:18.929Z,45.50
2019-05-09T15:30:49.009Z,45.56
2019-05-09T15:33:18.474Z,45.21
2019-05-09T15:35:50.973Z,45.27
2019-05-09T15:38:22.418Z,45.76
2019-05-09T15:40:51.639Z,46.17
2019-05-09T15:43:21.129Z,46.08
2019-05-09T15:45:52.199Z,46.73
2019-05-09T15:48:21.641Z,47.10
2019-05-09T15:50:50.996Z,49.97
2019-05-09T15:53:20.691Z,49.97
2019-05-09T15:55:50.088Z,51.30
2019-05-09T15:58:19.501Z,49.90
2019-05-09T16:00:49.150Z,50.27
2019-05-09T16:03:18.794Z,49.90
2019-05-09T16:05:51.660Z,50.77
2019-05-09T16:08:21.138Z,50.18
2019-05-09T16:10:50.505Z,51.04
2019-05-09T16:13:19.908Z,50.23
2019-05-09T16:15:49.320Z,50.67
2019-05-09T16:18:18.789Z,50.19
2019-05-09T16:20:48.806Z,51.15
2019-05-09T16:23:18.557Z,52.09
2019-05-09T16:25:48.132Z,53.40
2019-05-09T16:28:18.543Z,54.61
2019-05-09T16:30:48.429Z,55.06
2019-05-09T16:33:18.368Z,55.99
2019-05-09T16:35:48.804Z,56.76
2019-05-09T16:38:19.104Z,56.95
2019-05-09T16:40:48.513Z,56.61
2019-05-09T16:43:17.961Z,57.35
2019-05-09T16:45:47.935Z,58.15
2019-05-09T16:48:18.487Z,58.74
2019-05-09T16:51:00.418Z,59.36
2019-05-09T16:53:19.448Z,59.21
2019-05-09T16:55:48.851Z,59.81
2019-05-09T16:58:18.868Z,60.04
2019-05-09T17:00:50.260Z,58.57
2019-05-09T17:03:19.706Z,59.01
2019-05-09T17:06:10.179Z,60.11
2019-05-09T17:08:40.829Z,60.65
2019-05-09T17:11:10.591Z,60.41
2019-05-09T17:13:40.011Z,60.85
2019-05-09T17:16:09.569Z,61.14
2019-05-09T17:18:39.224Z,60.87
2019-05-09T17:21:21.495Z,62.19
2019-05-09T17:23:48.159Z,62.93
2019-05-09T17:26:18.477Z,62.83
2019-05-09T17:28:48.478Z,63.96
2019-05-09T17:31:19.782Z,63.67
2019-05-09T17:37:11.274Z,64.40
2019-05-09T17:39:45.951Z,63.46
2019-05-09T17:42:38.118Z,64.16
2019-05-09T17:45:11.744Z,65.85
2019-05-09T17:47:44.394Z,64.94
2019-05-09T17:50:22.077Z,65.37
2019-05-09T17:52:47.984Z,65.46
2019-05-09T17:55:18.174Z,65.96
2019-05-09T17:57:48.169Z,66.21
2019-05-09T18:00:21.689Z,66.22
2019-05-09T18:02:49.390Z,65.98
2019-05-09T18:05:19.198Z,65.18
2019-05-09T18:07:49.554Z,65.45
2019-05-09T18:10:20.696Z,66.09
2019-05-09T18:12:50.363Z,66.25
2019-05-09T18:15:20.201Z,66.45
2019-05-09T18:17:49.731Z,65.91
2019-05-09T18:20:19.252Z,65.28
2019-05-09T18:22:50.599Z,64.78
2019-05-09T18:25:20.130Z,64.79
2019-05-09T18:27:49.479Z,65.12
2019-05-09T18:30:19.275Z,64.81
2019-05-09T18:32:58.833Z,64.13
2019-05-09T18:35:29.596Z,64.25
2019-05-09T18:37:59.374Z,65.90
2019-05-09T18:40:29.054Z,65.85
2019-05-09T18:42:58.570Z,66.18
2019-05-09T18:45:28.502Z,66.25
2019-05-09T18:47:58.259Z,65.81
2019-05-09T18:50:27.741Z,65.86
2019-05-09T18:52:58.651Z,66.73
2019-05-09T18:55:28.358Z,66.52
2019-05-09T18:57:57.828Z,67.56
2019-05-09T19:00:27.854Z,68.23
2019-05-09T19:02:57.572Z,68.28
2019-05-09T19:05:27.124Z,68.77
2019-05-09T19:07:58.435Z,69.64
2019-05-09T19:10:28.271Z,69.57
2019-05-09T19:13:01.302Z,69.36
2019-05-09T19:15:32.285Z,68.44
2019-05-09T19:18:15.445Z,68.51
2019-05-09T19:20:52.633Z,68.88
2019-05-09T19:23:22.117Z,69.03
2019-05-09T19:25:53.087Z,69.63
2019-05-09T19:28:24.161Z,70.37
2019-05-09T19:30:53.895Z,70.76
2019-05-09T19:33:25.811Z,70.47
2019-05-09T19:35:55.274Z,70.58
2019-05-09T19:38:24.827Z,69.51
2019-05-09T19:40:54.312Z,68.83
2019-05-09T19:43:23.785Z,67.77
2019-05-09T19:45:53.255Z,68.85
2019-05-09T19:48:22.733Z,68.34
2019-05-09T19:50:52.146Z,67.55
2019-05-09T19:53:21.636Z,67.60
2019-05-09T19:55:51.191Z,68.70
2019-05-09T19:58:20.766Z,68.22
2019-05-09T20:00:50.158Z,67.82
2019-05-09T20:03:19.604Z,68.64
2019-05-09T20:05:49.078Z,69.59
2019-05-09T20:08:18.476Z,68.79
2019-05-09T20:13:38.273Z,69.51
2019-05-09T20:16:07.724Z,70.84
2019-05-09T20:18:37.157Z,70.26
2019-05-09T20:21:06.607Z,70.42
2019-05-09T20:23:36.023Z,70.65
2019-05-09T20:26:05.504Z,70.45
2019-05-09T20:28:35.015Z,69.87
2019-05-09T20:31:04.377Z,70.79
2019-05-09T20:33:33.767Z,70.04
2019-05-09T20:36:03.171Z,70.69
2019-05-09T20:38:32.735Z,70.01
2019-05-09T20:41:02.379Z,69.87
2019-05-09T20:43:32.017Z,70.14
2019-05-09T20:46:01.549Z,70.35
2019-05-09T20:48:31.267Z,70.60
2019-05-09T20:51:00.828Z,70.51
2019-05-09T20:53:30.400Z,70.28
2019-05-09T20:56:00.026Z,70.05
2019-05-09T20:58:29.648Z,71.09
2019-05-09T21:00:59.261Z,70.99
2019-05-09T21:03:28.816Z,71.67
2019-05-09T21:05:58.384Z,71.34
2019-05-09T21:08:28.009Z,71.64
2019-05-09T21:10:57.582Z,72.03
2019-05-09T21:13:27.147Z,72.15
2019-05-09T21:15:56.788Z,71.72
2019-05-09T21:18:26.475Z,70.83
2019-05-09T21:20:56.099Z,71.42
2019-05-09T21:23:25.721Z,71.70
2019-05-09T21:25:55.341Z,71.57
2019-05-09T21:28:25.021Z,71.17
2019-05-09T21:30:54.559Z,72.12
2019-05-09T21:33:24.243Z,72.58
2019-05-09T21:35:53.682Z,72.92
2019-05-09T21:38:23.085Z,73.95
2019-05-09T21:40:52.509Z,74.07
2019-05-09T21:43:21.939Z,73.55
2019-05-09T21:45:51.377Z,73.71
2019-05-09T21:48:20.755Z,73.60
2019-05-09T21:50:50.124Z,73.67
2019-05-09T21:53:19.593Z,74.03
2019-05-09T21:55:49.016Z,74.46
2019-05-09T21:58:18.401Z,74.73
2019-05-09T22:00:50.762Z,75.04
2019-05-09T22:03:20.695Z,75.96
2019-05-09T22:05:50.071Z,76.26
2019-05-09T22:08:19.457Z,76.12
2019-05-09T22:10:48.831Z,76.69
2019-05-09T22:13:18.285Z,77.08
2019-05-09T22:15:47.929Z,77.59
2019-05-09T22:18:17.382Z,77.63
2019-05-09T22:20:46.837Z,77.42
2019-05-09T22:23:16.219Z,77.64
2019-05-09T22:25:45.628Z,78.10
2019-05-09T22:28:15.097Z,78.38
2019-05-09T22:30:44.542Z,79.09
2019-05-09T22:33:13.976Z,78.43
2019-05-09T22:35:43.360Z,78.41
2019-05-09T22:38:12.704Z,78.21
2019-05-09T22:40:42.174Z,78.83
2019-05-09T22:43:11.533Z,79.16
2019-05-09T22:45:41.002Z,79.03
2019-05-09T22:48:10.440Z,78.27
2019-05-09T22:50:39.791Z,78.93
2019-05-09T22:53:09.183Z,78.55
2019-05-09T22:55:38.576Z,78.80
2019-05-09T22:58:07.987Z,78.71
2019-05-09T23:00:37.472Z,79.68
2019-05-09T23:03:06.871Z,79.98
2019-05-09T23:05:36.299Z,79.50
2019-05-09T23:08:05.666Z,80.41
2019-05-09T23:10:35.093Z,80.94
2019-05-09T23:13:04.561Z,81.35
2019-05-09T23:15:34.004Z,81.07
2019-05-09T23:18:03.437Z,81.02
2019-05-09T23:23:22.421Z,80.13
2019-05-09T23:25:51.872Z,80.78
2019-05-09T23:28:21.329Z,80.89
2019-05-09T23:30:52.340Z,81.16
2019-05-09T23:33:22.644Z,81.32
2019-05-09T23:35:52.058Z,80.92
2019-05-09T23:38:21.514Z,79.83
2019-05-09T23:40:50.893Z,80.05
2019-05-09T23:43:20.314Z,80.67
2019-05-09T23:45:49.677Z,80.94
2019-05-09T23:48:19.059Z,81.63
2019-05-09T23:50:48.458Z,81.77
2019-05-09T23:53:21.199Z,80.94
2019-05-09T23:56:08.306Z,81.13
2019-05-09T23:58:55.695Z,81.54
